createdAt,value
2019-05-18T00:01:49.601Z,53.50
2019-05-18T00:04:21.972Z,53.80
2019-05-18T00:06:54.513Z,52.80
2019-05-18T00:09:26.882Z,53.20
2019-05-18T00:11:59.215Z,54.60
2019-05-18T00:16:09.854Z,53.40
2019-05-18T00:17:24.442Z,52.60
2019-05-18T00:19:46.589Z,55.10
2019-05-18T00:22:18.959Z,58.50
2019-05-18T00:24:51.283Z,56.90
2019-05-18T00:27:23.666Z,57.30
2019-05-18T00:29:56.085Z,57.90
2019-05-18T00:32:28.576Z,57.50
2019-05-18T00:35:00.927Z,57.50
2019-05-18T00:37:33.438Z,59.50
2019-05-18T00:40:07.688Z,62.50
2019-05-18T00:42:40.062Z,63.80
2019-05-18T00:45:12.837Z,64.60
2019-05-18T00:47:45.168Z,68.40
2019-05-18T00:50:18.244Z,69.50
2019-05-18T00:52:50.788Z,69.20
2019-05-18T00:55:23.116Z,70.10
2019-05-18T00:57:55.513Z,70.30
2019-05-18T01:00:28.146Z,71.80
2019-05-18T01:03:00.510Z,69.70
2019-05-18T01:05:33.904Z,71.00
2019-05-18T01:08:06.477Z,71.30
2019-05-18T01:10:38.849Z,69.90
2019-05-18T01:13:11.260Z,71.90
2019-05-18T01:15:43.645Z,73.40
2019-05-18T01:18:16.582Z,74.20
2019-05-18T01:20:49.264Z,73.40
2019-05-18T01:23:21.608Z,75.70
2019-05-18T01:25:54.022Z,77.00
2019-05-18T01:28:26.569Z,77.60
2019-05-18T01:30:59.086Z,78.10
2019-05-18T01:33:31.539Z,78.10
2019-05-18T01:36:03.945Z,80.50
2019-05-18T01:38:36.306Z,79.70
2019-05-18T01:41:08.707Z,80.40
2019-05-18T01:43:41.125Z,82.70
2019-05-18T01:46:13.510Z,82.90
2019-05-18T01:48:46.129Z,80.00
2019-05-18T01:51:18.853Z,82.40
2019-05-18T01:53:51.384Z,84.60
2019-05-18T01:56:24.078Z,86.30
2019-05-18T01:58:56.447Z,89.20
2019-05-18T02:01:28.910Z,86.70
2019-05-18T02:04:02.279Z,89.30
2019-05-18T02:06:34.829Z,88.70
2019-05-18T02:09:09.264Z,88.80
2019-05-18T02:11:41.682Z,89.00
2019-05-18T02:14:14.120Z,90.50
2019-05-18T02:16:46.495Z,90.50
2019-05-18T02:19:19.551Z,91.30
2019-05-18T02:21:52.107Z,91.10
2019-05-18T02:24:24.467Z,90.60
2019-05-18T02:26:56.850Z,91.40
2019-05-18T02:29:29.235Z,92.00
2019-05-18T02:32:01.896Z,91.70
2019-05-18T02:34:34.572Z,92.50
2019-05-18T02:37:07.409Z,93.30
2019-05-18T02:39:40.124Z,93.80
2019-05-18T02:42:12.642Z,93.10
2019-05-18T02:44:45.127Z,93.50
2019-05-18T02:47:17.552Z,94.00
2019-05-18T02:49:49.930Z,95.00
2019-05-18T02:52:22.537Z,95.50
2019-05-18T02:54:55.281Z,96.70
2019-05-18T02:57:27.654Z,97.50
2019-05-18T03:00:00.017Z,97.90
2019-05-18T03:02:32.399Z,98.60
2019-05-18T03:05:05.797Z,99.20
2019-05-18T03:07:38.175Z,99.90
2019-05-18T03:10:10.620Z,99.90
2019-05-18T03:12:43.001Z,99.90
2019-05-18T03:15:15.643Z,99.90
2019-05-18T03:17:48.240Z,99.90
2019-05-18T03:20:21.195Z,99.90
2019-05-18T03:22:54.122Z,99.90
2019-05-18T03:25:27.266Z,99.90
2019-05-18T03:28:02.333Z,99.90
2019-05-18T03:30:34.892Z,99.90
2019-05-18T03:33:07.317Z,99.90
2019-05-18T03:35:40.179Z,99.90
2019-05-18T03:38:12.768Z,99.90
2019-05-18T03:40:45.290Z,99.90
2019-05-18T03:43:17.816Z,99.90
2019-05-18T03:45:50.182Z,99.90
2019-05-18T03:48:22.664Z,99.90
2019-05-18T03:50:55.441Z,99.90
2019-05-18T03:53:28.134Z,99.90
2019-05-18T03:56:00.498Z,99.90
2019-05-18T03:58:33.281Z,99.90
2019-05-18T04:01:05.601Z,99.90
2019-05-18T04:03:38.286Z,99.90
2019-05-18T04:06:10.632Z,99.90
2019-05-18T04:08:43.001Z,99.90
2019-05-18T04:11:15.572Z,99.90
2019-05-18T04:13:48.346Z,99.90
2019-05-18T04:16:20.793Z,99.90
2019-05-18T04:18:53.848Z,99.90
2019-05-18T04:21:26.287Z,99.90
2019-05-18T04:23:59.249Z,99.90
2019-05-18T04:26:31.804Z,99.90
2019-05-18T04:29:04.370Z,99.90
2019-05-18T04:31:36.928Z,99.90
2019-05-18T04:34:09.389Z,99.90
2019-05-18T04:36:41.721Z,99.90
2019-05-18T04:39:14.168Z,99.90
2019-05-18T04:41:46.572Z,99.90
2019-05-18T04:44:19.337Z,99.90
2019-05-18T04:46:51.664Z,99.90
2019-05-18T04:49:24.191Z,99.90
2019-05-18T04:51:56.563Z,99.90
2019-05-18T04:54:29.526Z,99.90
2019-05-18T04:57:01.899Z,99.90
2019-05-18T04:59:34.285Z,99.90
2019-05-18T05:02:06.767Z,99.90
2019-05-18T05:04:39.182Z,99.90
2019-05-18T05:07:11.512Z,99.90
2019-05-18T05:09:43.894Z,99.90
2019-05-18T05:12:16.321Z,99.90
2019-05-18T05:14:48.675Z,99.90
2019-05-18T05:17:21.095Z,99.90
2019-05-18T05:19:54.647Z,99.90
2019-05-18T05:22:27.161Z,99.90
2019-05-18T05:24:59.731Z,99.90
2019-05-18T05:27:32.087Z,99.90
2019-05-18T05:30:05.050Z,99.90
2019-05-18T05:32:37.381Z,99.90
2019-05-18T05:35:10.182Z,99.90
2019-05-18T05:37:42.522Z,99.90
2019-05-18T05:40:15.532Z,99.90
2019-05-18T05:42:48.263Z,99.90
2019-05-18T05:45:20.879Z,99.90
2019-05-18T05:47:53.285Z,99.90
2019-05-18T05:50:35.380Z,99.90
2019-05-18T05:52:59.720Z,99.90
2019-05-18T05:55:32.255Z,99.90
2019-05-18T05:58:04.718Z,99.90
2019-05-18T06:00:37.064Z,99.90
2019-05-18T06:03:09.390Z,99.90
2019-05-18T06:05:41.778Z,99.90
2019-05-18T06:08:14.116Z,99.90
2019-05-18T06:10:46.483Z,99.90
2019-05-18T06:13:18.909Z,99.90
2019-05-18T06:15:51.357Z,99.90
2019-05-18T06:18:24.874Z,99.90
2019-05-18T06:20:57.406Z,99.90
2019-05-18T06:23:30.163Z,99.90
2019-05-18T06:26:02.717Z,99.90
2019-05-18T06:28:35.623Z,99.90
2019-05-18T06:31:08.079Z,99.90
2019-05-18T06:33:40.407Z,99.90
2019-05-18T06:36:12.786Z,99.90
2019-05-18T06:38:45.494Z,99.90
2019-05-18T06:41:18.018Z,99.90
2019-05-18T06:43:50.511Z,99.90
2019-05-18T06:46:23.140Z,99.90
2019-05-18T06:48:55.659Z,99.90
2019-05-18T06:51:28.008Z,99.90
2019-05-18T06:54:00.329Z,99.90
2019-05-18T06:56:35.174Z,99.90
2019-05-18T06:59:07.704Z,99.90
2019-05-18T07:01:40.179Z,99.90
2019-05-18T07:04:12.517Z,99.90
2019-05-18T07:06:44.864Z,99.90
2019-05-18T07:09:17.315Z,99.90
2019-05-18T07:11:49.693Z,99.90
2019-05-18T07:14:25.651Z,99.90
2019-05-18T07:16:55.811Z,99.90
2019-05-18T07:19:28.141Z,99.90
2019-05-18T07:22:00.726Z,99.90
2019-05-18T07:24:34.238Z,99.90
2019-05-18T07:27:06.898Z,99.90
2019-05-18T07:29:39.325Z,99.90
2019-05-18T07:32:11.866Z,99.90
2019-05-18T07:34:44.262Z,99.90
2019-05-18T07:37:16.841Z,99.90
2019-05-18T07:39:49.173Z,99.90
2019-05-18T07:42:22.919Z,99.90
2019-05-18T07:44:55.266Z,99.90
2019-05-18T07:47:27.675Z,99.90
2019-05-18T07:50:00.015Z,99.90
2019-05-18T07:52:32.417Z,99.90
2019-05-18T07:55:05.246Z,99.90
2019-05-18T07:57:37.909Z,99.90
2019-05-18T08:00:10.630Z,99.90
2019-05-18T08:02:43.118Z,99.90
2019-05-18T08:05:15.556Z,99.90
2019-05-18T08:07:47.943Z,99.90
2019-05-18T08:10:22.778Z,99.90
2019-05-18T08:12:55.120Z,99.90
2019-05-18T08:15:27.455Z,99.90
2019-05-18T08:17:59.837Z,99.90
2019-05-18T08:20:32.377Z,99.90
2019-05-18T08:23:05.236Z,99.90
2019-05-18T08:25:38.047Z,99.90
2019-05-18T08:28:10.590Z,99.90
2019-05-18T08:30:42.911Z,99.90
2019-05-18T08:33:15.406Z,99.90
2019-05-18T08:35:47.746Z,99.90
2019-05-18T08:38:20.092Z,99.90
2019-05-18T08:40:52.482Z,99.90
2019-05-18T08:43:24.872Z,99.90
2019-05-18T08:45:57.291Z,99.90
2019-05-18T08:48:29.839Z,99.90
2019-05-18T08:51:02.189Z,99.90
2019-05-18T08:53:34.611Z,99.90
2019-05-18T08:56:07.082Z,99.90
2019-05-18T08:58:39.604Z,99.90
2019-05-18T09:01:12.001Z,99.90
2019-05-18T09:03:45.639Z,99.90
2019-05-18T09:06:18.119Z,99.90
2019-05-18T09:08:50.650Z,99.90
2019-05-18T09:11:22.970Z,99.90
2019-05-18T09:13:55.352Z,99.90
2019-05-18T09:16:27.789Z,99.90
2019-05-18T09:19:00.865Z,99.90
2019-05-18T09:21:33.283Z,99.90
2019-05-18T09:24:05.721Z,99.90
2019-05-18T09:26:38.305Z,99.90
2019-05-18T09:29:10.847Z,99.90
2019-05-18T09:31:43.188Z,99.90
2019-05-18T09:34:15.548Z,99.90
2019-05-18T09:36:47.881Z,99.90
2019-05-18T09:39:20.246Z,99.90
2019-05-18T09:41:52.702Z,99.90
2019-05-18T09:44:26.042Z,99.90
2019-05-18T09:46:58.363Z,99.90
2019-05-18T09:49:30.730Z,99.90
2019-05-18T09:52:03.136Z,99.90
2019-05-18T09:54:35.652Z,99.90
2019-05-18T09:57:07.960Z,99.90
2019-05-18T09:59:40.498Z,99.90
2019-05-18T10:02:13.092Z,99.90
2019-05-18T10:04:45.635Z,99.90
2019-05-18T10:07:17.944Z,99.90
2019-05-18T10:09:50.451Z,99.90
2019-05-18T10:12:24.759Z,99.90
2019-05-18T10:14:56.746Z,99.90
2019-05-18T10:17:29.066Z,99.90
2019-05-18T10:20:01.434Z,99.90
2019-05-18T10:22:34.129Z,99.90
2019-05-18T10:25:08.383Z,99.90
2019-05-18T10:27:41.084Z,99.90
2019-05-18T10:30:14.003Z,99.90
2019-05-18T10:32:46.323Z,99.90
2019-05-18T10:35:18.841Z,99.90
2019-05-18T10:37:51.264Z,99.90
2019-05-18T10:40:23.706Z,99.90
2019-05-18T10:42:56.026Z,99.90
2019-05-18T10:45:28.500Z,99.90
2019-05-18T10:48:00.834Z,99.90
2019-05-18T10:50:33.172Z,99.90
2019-05-18T10:53:06.070Z,99.90
2019-05-18T10:55:38.407Z,99.90
2019-05-18T10:58:10.914Z,99.90
2019-05-18T11:00:43.433Z,99.90
2019-05-18T11:03:15.954Z,99.90
2019-05-18T11:05:48.458Z,99.90
2019-05-18T11:08:20.873Z,99.90
2019-05-18T11:10:53.244Z,99.90
2019-05-18T11:13:25.566Z,99.90
2019-05-18T11:15:57.892Z,99.90
2019-05-18T11:18:30.450Z,99.90
2019-05-18T11:21:02.870Z,99.90
2019-05-18T11:23:43.186Z,99.90
2019-05-18T11:26:09.084Z,99.90
2019-05-18T11:28:41.629Z,99.90
2019-05-18T11:31:14.226Z,99.90
2019-05-18T11:33:46.776Z,99.90
2019-05-18T11:36:19.231Z,99.90
2019-05-18T11:38:51.782Z,99.90
2019-05-18T11:41:24.120Z,99.90
2019-05-18T11:43:56.526Z,99.90
2019-05-18T11:46:28.846Z,99.90
2019-05-18T11:49:01.226Z,99.90
2019-05-18T11:51:33.713Z,99.90
2019-05-18T11:54:06.172Z,99.90
2019-05-18T11:56:38.783Z,99.90
2019-05-18T11:59:11.084Z,99.90
2019-05-18T12:01:43.582Z,99.90
2019-05-18T12:04:16.386Z,99.90
2019-05-18T12:06:48.993Z,99.90
2019-05-18T12:09:21.472Z,99.90
2019-05-18T12:11:53.898Z,99.90
2019-05-18T12:14:26.254Z,99.90
2019-05-18T12:16:58.603Z,99.90
2019-05-18T12:19:30.934Z,99.90
2019-05-18T12:22:03.417Z,99.90
2019-05-18T12:24:35.725Z,99.90
2019-05-18T12:27:08.075Z,99.90
2019-05-18T12:29:40.759Z,99.90
2019-05-18T12:32:13.267Z,99.90
2019-05-18T12:34:45.869Z,99.90
2019-05-18T12:37:24.215Z,99.90
2019-05-18T12:39:56.659Z,99.90
2019-05-18T12:42:29.444Z,99.90
2019-05-18T12:45:01.792Z,99.90
2019-05-18T12:47:34.237Z,99.90
2019-05-18T12:50:08.420Z,99.90
2019-05-18T12:52:41.083Z,99.90
2019-05-18T12:55:13.989Z,99.90
2019-05-18T12:57:46.360Z,99.90
2019-05-18T13:00:19.995Z,99.90
2019-05-18T13:02:52.649Z,99.90
2019-05-18T13:05:25.201Z,99.90
2019-05-18T13:07:57.742Z,99.90
2019-05-18T13:10:30.102Z,99.90
2019-05-18T13:13:02.524Z,99.90
2019-05-18T13:15:34.929Z,99.90
2019-05-18T13:18:07.293Z,99.90
2019-05-18T13:20:39.603Z,99.90
2019-05-18T13:23:12.097Z,99.90
2019-05-18T13:25:44.524Z,99.90
2019-05-18T13:28:16.868Z,99.90
2019-05-18T13:30:49.541Z,99.90
2019-05-18T13:33:22.497Z,99.90
2019-05-18T13:35:54.814Z,99.90
2019-05-18T13:38:27.176Z,99.90
2019-05-18T13:40:59.496Z,99.90
2019-05-18T13:43:31.839Z,99.90
2019-05-18T13:46:04.158Z,99.90
2019-05-18T13:48:36.549Z,99.90
2019-05-18T13:51:08.895Z,99.90
2019-05-18T13:53:41.486Z,99.90
2019-05-18T13:56:13.810Z,99.90
2019-05-18T13:58:46.488Z,99.90
2019-05-18T14:01:20.081Z,99.90
2019-05-18T14:03:52.674Z,99.90
2019-05-18T14:06:25.147Z,99.90
2019-05-18T14:08:58.543Z,99.90
2019-05-18T14:11:31.091Z,99.90
2019-05-18T14:14:03.486Z,99.90
2019-05-18T14:16:35.830Z,99.90
2019-05-18T14:19:08.384Z,99.90
2019-05-18T14:21:40.705Z,99.90
2019-05-18T14:24:13.046Z,99.90
2019-05-18T14:26:45.366Z,99.90
2019-05-18T14:29:17.802Z,99.90
2019-05-18T14:31:50.798Z,99.90
2019-05-18T14:34:23.349Z,99.90
2019-05-18T14:36:55.682Z,99.90
2019-05-18T14:39:28.311Z,99.90
2019-05-18T14:42:00.622Z,99.90
2019-05-18T14:44:33.002Z,99.90
2019-05-18T14:47:05.423Z,99.90
2019-05-18T14:49:37.777Z,99.90
2019-05-18T14:52:12.233Z,99.90
2019-05-18T14:54:44.290Z,99.90
2019-05-18T14:57:16.648Z,99.90
2019-05-18T14:59:49.086Z,99.90
2019-05-18T15:02:21.399Z,99.90
2019-05-18T15:04:56.854Z,99.90
2019-05-18T15:07:27.789Z,99.90
2019-05-18T15:10:00.585Z,99.90
2019-05-18T15:12:32.930Z,99.90
2019-05-18T15:15:06.595Z,99.90
2019-05-18T15:17:39.023Z,99.90
2019-05-18T15:20:12.889Z,99.90
2019-05-18T15:22:45.352Z,99.90
2019-05-18T15:25:17.829Z,99.90
2019-05-18T15:27:50.165Z,99.90
2019-05-18T15:30:23.819Z,99.90
2019-05-18T15:32:56.314Z,99.90
2019-05-18T15:35:28.697Z,99.90
2019-05-18T15:38:01.095Z,99.90
2019-05-18T15:40:33.460Z,99.90
2019-05-18T15:43:06.014Z,99.90
2019-05-18T15:45:38.507Z,99.90
2019-05-18T15:48:10.962Z,99.90
2019-05-18T15:50:43.430Z,99.90
2019-05-18T15:53:16.156Z,99.90
2019-05-18T15:55:48.750Z,99.90
2019-05-18T15:58:21.130Z,99.90
2019-05-18T16:00:53.533Z,99.90
2019-05-18T16:03:26.207Z,99.90
2019-05-18T16:05:59.375Z,99.90
2019-05-18T16:08:32.050Z,99.90
2019-05-18T16:11:04.818Z,99.90
2019-05-18T16:13:37.380Z,99.90
2019-05-18T16:16:09.998Z,99.90
2019-05-18T16:18:42.448Z,99.90
2019-05-18T16:21:14.830Z,99.90
2019-05-18T16:23:47.316Z,99.90
2019-05-18T16:26:21.884Z,99.90
2019-05-18T16:28:53.459Z,99.90
2019-05-18T16:31:26.803Z,99.90
2019-05-18T16:34:00.059Z,99.90
2019-05-18T16:36:32.648Z,99.90
2019-05-18T16:39:06.116Z,99.90
2019-05-18T16:41:39.111Z,99.90
2019-05-18T16:44:11.700Z,99.90
2019-05-18T16:46:44.106Z,99.90
2019-05-18T16:49:16.666Z,99.90
2019-05-18T16:51:49.415Z,99.90
2019-05-18T16:54:21.755Z,99.90
2019-05-18T16:56:54.229Z,99.90
2019-05-18T16:59:26.612Z,99.90
2019-05-18T17:01:59.056Z,99.90
2019-05-18T17:04:31.418Z,99.90
2019-05-18T17:07:03.991Z,99.90
2019-05-18T17:09:36.355Z,99.90
2019-05-18T17:12:08.983Z,99.90
2019-05-18T17:14:41.350Z,99.90
2019-05-18T17:17:13.754Z,99.90
2019-05-18T17:19:46.137Z,99.90
2019-05-18T17:22:18.526Z,99.90
2019-05-18T17:24:50.878Z,99.90
2019-05-18T17:27:24.257Z,99.90
2019-05-18T17:29:56.594Z,99.90
2019-05-18T17:32:28.978Z,99.90
2019-05-18T17:35:02.094Z,99.90
2019-05-18T17:37:34.647Z,99.90
2019-05-18T17:40:10.199Z,99.90
2019-05-18T17:42:42.553Z,99.90
2019-05-18T17:45:15.103Z,99.90
2019-05-18T17:47:47.609Z,99.90
2019-05-18T17:50:20.144Z,99.90
2019-05-18T17:52:52.651Z,99.60
2019-05-18T17:55:25.121Z,98.50
2019-05-18T17:57:58.035Z,97.50
2019-05-18T18:00:30.564Z,98.60
2019-05-18T18:03:02.942Z,98.60
2019-05-18T18:05:35.486Z,99.50
2019-05-18T18:08:08.163Z,99.60
2019-05-18T18:10:40.495Z,99.90
2019-05-18T18:13:13.129Z,99.90
2019-05-18T18:15:45.858Z,99.90
2019-05-18T18:18:18.228Z,99.90
2019-05-18T18:20:50.569Z,99.90
2019-05-18T18:23:23.030Z,99.90
2019-05-18T18:25:55.366Z,97.40
2019-05-18T18:28:27.958Z,98.70
2019-05-18T18:31:00.686Z,97.90
2019-05-18T18:33:33.190Z,99.90
2019-05-18T18:36:05.894Z,99.90
2019-05-18T18:38:38.573Z,99.90
2019-05-18T18:41:11.926Z,99.90
2019-05-18T18:43:44.597Z,99.90
2019-05-18T18:46:16.972Z,99.90
2019-05-18T18:48:49.654Z,99.90
2019-05-18T18:51:23.138Z,99.90
2019-05-18T18:53:55.604Z,99.90
2019-05-18T18:56:27.972Z,99.90
2019-05-18T18:59:00.385Z,99.90
2019-05-18T19:01:32.724Z,99.90
2019-05-18T19:04:06.213Z,99.90
2019-05-18T19:06:38.635Z,99.90
2019-05-18T19:09:11.892Z,99.90
2019-05-18T19:11:44.695Z,99.90
2019-05-18T19:14:17.277Z,99.90
2019-05-18T19:16:49.634Z,99.90
2019-05-18T19:19:23.011Z,99.90
2019-05-18T19:21:55.383Z,99.90
2019-05-18T19:24:27.748Z,99.90
2019-05-18T19:27:00.217Z,99.90
2019-05-18T19:29:32.678Z,99.90
2019-05-18T19:32:05.021Z,99.90
2019-05-18T19:34:37.402Z,99.90
2019-05-18T19:37:10.153Z,99.90
2019-05-18T19:39:42.880Z,99.90
2019-05-18T19:42:15.558Z,99.90
2019-05-18T19:44:47.950Z,99.90
2019-05-18T19:47:20.411Z,99.90
2019-05-18T19:49:52.805Z,99.90
2019-05-18T19:52:25.122Z,99.90
2019-05-18T19:54:58.596Z,99.90
2019-05-18T19:57:30.927Z,99.90
2019-05-18T20:00:03.338Z,99.90
2019-05-18T20:02:36.304Z,99.90
2019-05-18T20:05:10.164Z,99.90
2019-05-18T20:07:42.601Z,99.90
2019-05-18T20:10:15.325Z,99.90
2019-05-18T20:12:48.058Z,99.90
2019-05-18T20:15:21.215Z,99.90
2019-05-18T20:17:53.720Z,99.90
2019-05-18T20:20:26.102Z,99.90
2019-05-18T20:22:58.635Z,99.90
2019-05-18T20:25:31.138Z,99.90
2019-05-18T20:28:03.483Z,99.90
2019-05-18T20:30:35.797Z,99.90
2019-05-18T20:33:08.985Z,99.90
2019-05-18T20:35:41.599Z,99.90
2019-05-18T20:38:13.970Z,99.90
2019-05-18T20:40:47.501Z,99.90
2019-05-18T20:43:19.926Z,99.90
2019-05-18T20:45:52.782Z,99.90
2019-05-18T20:48:25.537Z,99.90
2019-05-18T20:50:57.894Z,99.90
2019-05-18T20:53:30.332Z,99.90
2019-05-18T20:56:02.708Z,99.90
2019-05-18T20:58:40.238Z,99.90
2019-05-18T21:01:08.884Z,99.90
2019-05-18T21:03:41.690Z,99.90
2019-05-18T21:06:14.038Z,99.90
2019-05-18T21:08:46.435Z,99.90
2019-05-18T21:11:19.616Z,99.90
2019-05-18T21:13:52.278Z,99.90
2019-05-18T21:16:24.879Z,99.90
2019-05-18T21:18:57.238Z,99.90
2019-05-18T21:21:29.671Z,99.90
2019-05-18T21:24:02.130Z,99.90
2019-05-18T21:26:34.626Z,99.90
2019-05-18T21:29:06.991Z,99.90
2019-05-18T21:31:39.792Z,99.90
2019-05-18T21:34:12.248Z,99.90
2019-05-18T21:36:44.664Z,99.90
2019-05-18T21:39:17.430Z,99.90
2019-05-18T21:41:49.785Z,99.90
2019-05-18T21:44:22.231Z,99.90
2019-05-18T21:46:54.572Z,99.90
2019-05-18T21:49:26.933Z,99.90
2019-05-18T21:51:59.540Z,99.90
2019-05-18T21:54:31.994Z,99.90
2019-05-18T21:57:04.990Z,99.90
2019-05-18T21:59:37.830Z,99.90
2019-05-18T22:02:10.734Z,99.90
2019-05-18T22:04:43.165Z,99.90
2019-05-18T22:07:15.542Z,99.90
2019-05-18T22:09:47.880Z,99.90
2019-05-18T22:12:20.365Z,99.90
2019-05-18T22:14:52.697Z,99.90
2019-05-18T22:17:25.234Z,99.90
2019-05-18T22:19:57.566Z,99.90
2019-05-18T22:22:29.941Z,99.90
2019-05-18T22:25:02.347Z,99.90
2019-05-18T22:27:34.624Z,99.90
2019-05-18T22:30:07.271Z,99.90
2019-05-18T22:32:39.851Z,99.90
2019-05-18T22:35:12.437Z,99.90
2019-05-18T22:37:44.776Z,99.90
2019-05-18T22:40:17.674Z,99.90
2019-05-18T22:42:50.063Z,99.90
2019-05-18T22:45:22.395Z,99.90
2019-05-18T22:47:54.795Z,99.90
2019-05-18T22:50:27.250Z,99.90
2019-05-18T22:52:59.721Z,99.90
2019-05-18T22:55:32.060Z,99.90
2019-05-18T22:58:05.318Z,99.90
2019-05-18T23:00:37.659Z,99.90
2019-05-18T23:03:10.402Z,99.90
2019-05-18T23:05:42.843Z,99.90
2019-05-18T23:08:15.250Z,99.90
2019-05-18T23:10:47.903Z,99.90
2019-05-18T23:13:20.308Z,99.90
2019-05-18T23:15:52.666Z,99.90
2019-05-18T23:18:25.213Z,99.90
2019-05-18T23:20:57.657Z,99.90
2019-05-18T23:23:30.062Z,99.90
2019-05-18T23:26:02.411Z,99.90
2019-05-18T23:28:34.782Z,99.90
2019-05-18T23:31:07.510Z,99.90
2019-05-18T23:33:40.047Z,99.90
2019-05-18T23:36:12.381Z,99.90
2019-05-18T23:38:44.892Z,99.90
2019-05-18T23:41:17.668Z,99.90
2019-05-18T23:43:50.409Z,99.90
2019-05-18T23:46:22.753Z,99.90
2019-05-18T23:48:55.214Z,99.90
2019-05-18T23:51:27.542Z,99.90
2019-05-18T23:53:59.910Z,99.90
2019-05-18T23:56:32.221Z,99.90
2019-05-18T23:59:06.054Z,99.90
